Terminal Aerodrome Forecast
Issued by NWS

Home | Current Version | Previous Version | Text Only | Print | Product List | Glossary On
Versions: 1 2 3 4 5 6 7 8 9 10 11 12 13 14 15 16 17 18
977
FTUS43 KFGF 242320
TAFTVF
TAF
KTVF 242320Z 2500/2524 29008KT P6SM SCT050
      TEMPO 2500/2501 BKN050
     FM250300 28006KT P6SM FEW250
     FM251400 26006KT P6SM SKC=

USA.gov is the U.S. government's official web portal to all federal, state and local government web resources and services.